Time;durP1;ratioP1;P1;durP2;ratioP2;P2;SDS_P1;SDS_P2;PMS_P1;PMS_P2;Temp;Humidity;BMP_temperature;BMP_pressure;BME280_temperature;BME280_humidity;BME280_pressure;Samples;Min_cycle;Max_cycle;Signal;HPM_P1;HPM_P2
2022/07/21 00:00:55;;;;;;;1999.90;999.90;;;25.10;73.70;;;;;;5029203;28;20463;-69
2022/07/21 00:03:21;;;;;;;1999.90;999.90;;;25.00;74.20;;;;;;5025160;28;20479;-70
2022/07/21 00:05:48;;;;;;;1999.90;999.90;;;24.90;74.40;;;;;;5023789;28;20538;-70
2022/07/21 00:08:15;;;;;;;1999.90;999.90;;;24.90;74.20;;;;;;5030810;28;20463;-69
2022/07/21 00:10:42;;;;;;;1999.90;999.90;;;24.70;73.80;;;;;;5031267;28;20470;-68
2022/07/21 00:13:08;;;;;;;1999.90;999.90;;;24.80;73.40;;;;;;5027927;28;20493;-69
2022/07/21 00:15:36;;;;;;;1999.90;999.90;;;24.80;73.10;;;;;;5042200;23;20560;-71
2022/07/21 00:18:03;;;;;;;1999.90;999.90;;;24.80;73.00;;;;;;5022910;28;21148;-70
2022/07/21 00:20:31;;;;;;;1999.90;999.90;;;24.80;72.80;;;;;;5029088;28;20513;-71
2022/07/21 00:22:58;;;;;;;1999.90;999.90;;;24.80;72.70;;;;;;5027230;28;21058;-71
2022/07/21 00:25:25;;;;;;;1999.90;999.90;;;24.70;72.50;;;;;;5026160;28;20483;-71
2022/07/21 00:27:51;;;;;;;1999.90;999.90;;;24.60;72.40;;;;;;5018445;28;20467;-71
2022/07/21 00:30:18;;;;;;;1999.90;999.90;;;24.60;72.10;;;;;;5019654;28;20463;-71
2022/07/21 00:32:46;;;;;;;1999.90;999.90;;;24.50;72.30;;;;;;5027608;28;20521;-70
2022/07/21 00:35:13;;;;;;;1999.90;999.90;;;24.70;72.40;;;;;;5029003;28;20488;-69
2022/07/21 00:37:41;;;;;;;1999.90;999.90;;;24.70;72.10;;;;;;5020065;28;20471;-70
2022/07/21 00:40:10;;;;;;;1999.90;999.90;;;24.70;71.80;;;;;;5021960;28;20573;-71
2022/07/21 00:42:37;;;;;;;1999.90;999.90;;;24.70;71.50;;;;;;5018972;28;20951;-69
2022/07/21 00:45:06;;;;;;;1999.90;999.90;;;24.70;71.60;;;;;;5024554;28;20916;-71
2022/07/21 00:47:33;;;;;;;1999.90;999.90;;;24.70;71.80;;;;;;5026534;28;20463;-71
2022/07/21 00:50:05;;;;;;;1999.90;999.90;;;24.60;72.10;;;;;;5019385;28;20463;-69
2022/07/21 00:52:32;;;;;;;1999.90;999.90;;;24.70;72.50;;;;;;5025019;28;20526;-69
2022/07/21 00:54:58;;;;;;;1999.90;999.90;;;24.70;72.40;;;;;;5020313;28;20483;-68
2022/07/21 00:57:26;;;;;;;1999.90;999.90;;;24.70;72.50;;;;;;5028507;28;20455;-71
2022/07/21 00:59:53;;;;;;;1999.90;999.90;;;24.70;72.20;;;;;;5023731;28;20459;-71
2022/07/21 01:02:19;;;;;;;1999.90;999.90;;;24.70;72.60;;;;;;5022623;28;20455;-67
2022/07/21 01:04:46;;;;;;;1999.90;999.90;;;24.70;72.70;;;;;;5023708;28;20579;-70
2022/07/21 01:07:15;;;;;;;1999.90;999.90;;;24.70;73.40;;;;;;5019349;28;20472;-69
2022/07/21 01:09:42;;;;;;;1999.90;999.90;;;24.70;75.30;;;;;;5026020;28;20460;-71
2022/07/21 01:12:10;;;;;;;1999.90;999.90;;;24.60;76.50;;;;;;5023372;28;20463;-69
2022/07/21 01:14:36;;;;;;;1999.90;999.90;;;24.60;77.70;;;;;;5023934;28;20456;-70
2022/07/21 01:17:03;;;;;;;1999.90;999.90;;;24.50;78.80;;;;;;5023960;28;20463;-71
2022/07/21 01:19:30;;;;;;;1999.90;999.90;;;24.50;79.90;;;;;;5026016;28;20463;-71
2022/07/21 01:21:59;;;;;;;1999.90;999.90;;;24.60;80.40;;;;;;5019473;28;20460;-71
2022/07/21 01:24:25;;;;;;;1999.90;999.90;;;24.70;81.50;;;;;;5022582;28;20478;-71
2022/07/21 01:26:54;;;;;;;1999.90;999.90;;;24.70;81.60;;;;;;5027220;28;20463;-72
2022/07/21 01:29:21;;;;;;;1999.90;999.90;;;24.70;82.30;;;;;;5025616;28;20522;-71
2022/07/21 01:31:49;;;;;;;1999.90;999.90;;;24.80;83.00;;;;;;5028265;28;20470;-71
2022/07/21 01:34:17;;;;;;;1999.90;999.90;;;24.80;83.30;;;;;;5018685;28;20583;-71
2022/07/21 01:36:44;;;;;;;1999.90;999.90;;;24.80;84.00;;;;;;5019500;28;20868;-70
2022/07/21 01:41:57;;;;;;;1999.90;999.90;;;24.70;85.00;;;;;;5025893;28;20461;-71
2022/07/21 01:44:24;;;;;;;1999.90;999.90;;;24.60;85.50;;;;;;5022973;28;20484;-70
2022/07/21 01:46:52;;;;;;;1999.90;999.90;;;24.60;86.00;;;;;;5019524;28;20548;-71
2022/07/21 01:49:21;;;;;;;1999.90;999.90;;;24.50;86.60;;;;;;5017886;28;20464;-70
2022/07/21 01:51:48;;;;;;;1999.90;999.90;;;24.40;87.30;;;;;;5020245;28;20466;-70
2022/07/21 01:54:16;;;;;;;1999.90;999.90;;;24.30;88.00;;;;;;5026250;28;20451;-71
2022/07/21 01:56:43;;;;;;;1999.90;999.90;;;24.30;88.90;;;;;;5019959;28;20484;-71
2022/07/21 01:59:09;;;;;;;1999.90;999.90;;;24.30;89.40;;;;;;5017809;28;20467;-70
2022/07/21 02:01:36;;;;;;;1999.90;999.90;;;24.20;89.70;;;;;;5020457;28;20456;-71
2022/07/21 02:04:05;;;;;;;1999.90;999.90;;;24.20;90.00;;;;;;5024030;28;20488;-71
2022/07/21 02:06:32;;;;;;;1999.90;999.90;;;24.30;90.20;;;;;;5020454;28;20900;-71
2022/07/21 02:08:58;;;;;;;1999.90;999.90;;;24.20;90.40;;;;;;5016340;28;20464;-72
2022/07/21 02:11:27;;;;;;;1999.90;999.90;;;24.20;90.90;;;;;;5017279;28;20540;-70
2022/07/21 02:13:53;;;;;;;1999.90;999.90;;;24.20;91.10;;;;;;5028264;28;20990;-70
2022/07/21 02:16:20;;;;;;;1999.90;999.90;;;24.10;91.50;;;;;;5031124;28;20540;-70
2022/07/21 02:18:47;;;;;;;1999.90;999.90;;;24.10;91.90;;;;;;5031005;28;20540;-70
2022/07/21 02:21:14;;;;;;;1999.90;999.90;;;24.00;92.50;;;;;;5022817;28;20513;-67
2022/07/21 02:23:40;;;;;;;1999.90;999.90;;;24.00;92.90;;;;;;5015152;28;21064;-70
2022/07/21 02:26:07;;;;;;;1999.90;999.90;;;24.00;93.30;;;;;;5017108;28;20514;-70
2022/07/21 02:28:35;;;;;;;1999.90;999.90;;;23.90;93.90;;;;;;5027262;28;20529;-70
2022/07/21 02:31:02;;;;;;;1999.90;999.90;;;23.80;94.40;;;;;;5020529;28;20463;-71
2022/07/21 02:33:29;;;;;;;1999.90;999.90;;;23.80;94.80;;;;;;5023112;28;20959;-71
2022/07/21 02:35:55;;;;;;;1999.90;999.90;;;23.80;95.30;;;;;;5018546;28;20542;-69
2022/07/21 02:38:22;;;;;;;1999.90;999.90;;;23.80;95.70;;;;;;5017686;28;20897;-70
2022/07/21 02:40:49;;;;;;;1999.90;999.90;;;23.80;96.00;;;;;;5027376;28;20525;-71
2022/07/21 02:43:16;;;;;;;1999.90;999.90;;;23.90;96.10;;;;;;5021467;28;20463;-71
2022/07/21 02:45:44;;;;;;;1999.90;999.90;;;23.90;96.20;;;;;;5015489;28;20491;-71
2022/07/21 02:48:12;;;;;;;1999.90;999.90;;;23.90;96.40;;;;;;5016514;28;20459;-71
2022/07/21 02:50:41;;;;;;;1999.90;999.90;;;23.90;96.50;;;;;;5023377;28;20465;-71
2022/07/21 02:53:10;;;;;;;1999.90;999.90;;;24.00;96.80;;;;;;5022037;28;21046;-70
2022/07/21 02:55:37;;;;;;;1999.90;999.90;;;23.90;97.20;;;;;;5019211;28;20472;-70
2022/07/21 02:58:09;;;;;;;1999.90;999.90;;;23.80;97.60;;;;;;5015674;28;20464;-70
2022/07/21 03:00:38;;;;;;;1999.90;999.90;;;23.80;97.90;;;;;;5018779;28;21026;-71
2022/07/21 03:03:06;;;;;;;1999.90;999.90;;;23.80;98.50;;;;;;5020775;28;20548;-70
2022/07/21 03:05:35;;;;;;;1999.90;999.90;;;23.70;99.00;;;;;;5025505;28;20496;-70
2022/07/21 03:08:01;;;;;;;1999.90;999.90;;;23.70;99.60;;;;;;5021634;28;20841;-71
2022/07/21 03:10:28;;;;;;;1999.90;999.90;;;23.70;99.80;;;;;;5018637;28;20455;-70
2022/07/21 03:12:55;;;;;;;1999.90;999.90;;;23.70;99.90;;;;;;5015132;28;20518;-70
2022/07/21 03:15:21;;;;;;;1999.90;999.90;;;23.60;99.90;;;;;;5027094;28;20499;-69
2022/07/21 03:17:48;;;;;;;1999.90;999.90;;;23.60;99.90;;;;;;5028600;28;20524;-70
2022/07/21 03:20:16;;;;;;;1999.90;999.90;;;23.50;99.90;;;;;;5029804;28;20463;-71
2022/07/21 03:22:43;;;;;;;1999.90;999.90;;;23.50;99.90;;;;;;5021791;28;20541;-71
2022/07/21 03:25:09;;;;;;;1999.90;999.90;;;23.40;99.90;;;;;;5020663;28;20906;-72
2022/07/21 03:27:37;;;;;;;1999.90;999.90;;;23.40;99.90;;;;;;5026387;28;20455;-70
2022/07/21 03:30:09;;;;;;;1999.90;999.90;;;23.40;99.90;;;;;;5023967;28;21011;-71
2022/07/21 03:32:36;;;;;;;1999.90;999.90;;;23.20;99.90;;;;;;5019087;28;20495;-71
2022/07/21 03:35:04;;;;;;;1999.90;999.90;;;23.20;99.90;;;;;;5015448;28;20518;-69
2022/07/21 03:37:32;;;;;;;1999.90;999.90;;;23.20;99.90;;;;;;5013701;28;20463;-71
2022/07/21 03:39:59;;;;;;;1999.90;999.90;;;23.20;99.90;;;;;;5024291;28;20471;-70
2022/07/21 03:42:26;;;;;;;1999.90;999.90;;;23.00;99.90;;;;;;5024293;28;21018;-70
2022/07/21 03:44:52;;;;;;;1999.90;999.90;;;22.70;99.90;;;;;;5013178;28;20495;-70
2022/07/21 03:47:19;;;;;;;1999.90;999.90;;;22.70;99.90;;;;;;5013880;28;21032;-71
2022/07/21 03:49:45;;;;;;;1999.90;999.90;;;22.70;99.90;;;;;;5017807;28;20459;-71
2022/07/21 03:52:12;;;;;;;1999.90;999.90;;;22.50;99.90;;;;;;5020873;28;20851;-70
2022/07/21 03:54:40;;;;;;;1999.90;999.90;;;22.50;99.90;;;;;;5023120;28;20522;-71
2022/07/21 03:57:06;;;;;;;1999.90;999.90;;;22.40;99.90;;;;;;5017138;28;20959;-70
2022/07/21 03:59:33;;;;;;;1999.90;999.90;;;22.40;99.90;;;;;;5013742;28;20464;-71
2022/07/21 04:02:00;;;;;;;1999.90;999.90;;;22.30;99.90;;;;;;5017591;28;20472;-71
2022/07/21 04:04:26;;;;;;;1999.90;999.90;;;22.30;99.90;;;;;;5019547;28;20542;-71
2022/07/21 04:06:53;;;;;;;1999.90;999.90;;;22.20;99.90;;;;;;5020790;28;20467;-71
2022/07/21 04:09:19;;;;;;;1999.90;999.90;;;22.10;99.90;;;;;;5023199;28;20536;-71
2022/07/21 04:11:47;;;;;;;1999.90;999.90;;;22.00;99.90;;;;;;5025620;28;21056;-72
2022/07/21 04:14:14;;;;;;;1999.90;999.90;;;22.00;99.90;;;;;;5022882;28;20494;-71
2022/07/21 04:16:41;;;;;;;1999.90;999.90;;;21.90;99.90;;;;;;5022067;28;20506;-71
2022/07/21 04:19:07;;;;;;;1999.90;999.90;;;21.90;99.90;;;;;;5023998;28;20467;-71
2022/07/21 04:21:34;;;;;;;1999.90;999.90;;;21.60;99.90;;;;;;5024513;28;20463;-70
2022/07/21 04:24:00;;;;;;;1999.90;999.90;;;21.50;99.90;;;;;;5024446;28;20540;-71
2022/07/21 04:26:28;;;;;;;1999.90;999.90;;;21.30;99.90;;;;;;5025867;28;20480;-71
2022/07/21 04:28:56;;;;;;;1999.90;999.90;;;21.30;99.90;;;;;;5029127;28;20838;-73
2022/07/21 04:31:23;;;;;;;1999.90;999.90;;;21.40;99.90;;;;;;5024629;28;20524;-71
2022/07/21 04:33:49;;;;;;;1999.90;999.90;;;21.30;99.90;;;;;;5031325;28;20470;-71
2022/07/21 04:36:16;;;;;;;1999.90;999.90;;;21.40;99.90;;;;;;5027867;28;20542;-70
2022/07/21 04:38:42;;;;;;;1999.90;999.90;;;21.50;99.90;;;;;;5029554;28;20459;-70
2022/07/21 04:41:09;;;;;;;1999.90;999.90;;;21.50;99.90;;;;;;5028437;28;20459;-71
2022/07/21 04:43:36;;;;;;;1999.90;999.90;;;21.40;99.90;;;;;;5030097;28;20459;-71
2022/07/21 04:46:04;;;;;;;1999.90;999.90;;;21.40;99.90;;;;;;5029592;28;20923;-71
2022/07/21 04:48:30;;;;;;;1999.90;999.90;;;21.30;99.90;;;;;;5027951;28;20513;-69
2022/07/21 04:50:57;;;;;;;1999.90;999.90;;;21.30;99.90;;;;;;5028860;28;20489;-70
2022/07/21 04:53:24;;;;;;;1999.90;999.90;;;21.30;99.90;;;;;;5027596;28;20537;-71
2022/07/21 04:55:50;;;;;;;1999.90;999.90;;;21.30;99.90;;;;;;5028125;28;20999;-71
2022/07/21 04:58:17;;;;;;;1999.90;999.90;;;21.50;99.90;;;;;;5028108;28;21161;-71
2022/07/21 05:00:44;;;;;;;1999.90;999.90;;;21.60;99.90;;;;;;5029893;28;21017;-71
2022/07/21 05:03:13;;;;;;;1999.90;999.90;;;21.60;99.90;;;;;;5027473;28;20460;-71
2022/07/21 05:05:40;;;;;;;1999.90;999.90;;;21.70;99.90;;;;;;5027020;28;20920;-68
2022/07/21 05:08:07;;;;;;;1999.90;999.90;;;22.00;99.90;;;;;;5028570;28;20467;-70
2022/07/21 05:10:34;;;;;;;1999.90;999.90;;;21.60;99.90;;;;;;5029061;28;20959;-72
2022/07/21 05:13:01;;;;;;;1999.90;999.90;;;21.60;99.90;;;;;;5029570;28;20463;-71
2022/07/21 05:15:28;;;;;;;1999.90;999.90;;;21.70;99.90;;;;;;5025367;28;20495;-70
2022/07/21 05:17:55;;;;;;;1999.90;999.90;;;21.70;99.90;;;;;;5031042;28;20475;-70
2022/07/21 05:20:23;;;;;;;1999.90;999.90;;;21.70;99.90;;;;;;5028372;28;20463;-69
2022/07/21 05:22:49;;;;;;;1999.90;999.90;;;21.70;99.90;;;;;;5029901;28;20538;-70
2022/07/21 05:25:16;;;;;;;1999.90;999.90;;;21.80;99.90;;;;;;5027710;28;21027;-70
2022/07/21 05:27:43;;;;;;;1999.90;999.90;;;21.80;99.90;;;;;;5022052;28;20897;-71
2022/07/21 05:30:11;;;;;;;1999.90;999.90;;;21.80;99.90;;;;;;5028523;28;20521;-71
2022/07/21 05:32:38;;;;;;;1999.90;999.90;;;21.90;99.90;;;;;;5028983;28;20493;-71
2022/07/21 05:35:10;;;;;;;1999.90;999.90;;;21.90;99.90;;;;;;5026635;28;20487;-69
2022/07/21 05:37:38;;;;;;;1999.90;999.90;;;21.90;99.90;;;;;;5029886;28;20566;-71
2022/07/21 05:40:06;;;;;;;1999.90;999.90;;;21.60;99.90;;;;;;5024443;28;20454;-71
2022/07/21 05:42:34;;;;;;;1999.90;999.90;;;21.40;99.90;;;;;;5030234;28;20459;-71
2022/07/21 05:45:00;;;;;;;1999.90;999.90;;;21.30;99.90;;;;;;5029876;28;20490;-70
2022/07/21 05:47:27;;;;;;;1999.90;999.90;;;21.50;99.90;;;;;;5029355;28;20459;-70
2022/07/21 05:49:54;;;;;;;1999.90;999.90;;;21.60;99.90;;;;;;5030341;28;20473;-69
2022/07/21 05:52:20;;;;;;;1999.90;999.90;;;21.70;99.90;;;;;;5027589;28;20471;-70
2022/07/21 05:54:48;;;;;;;1999.90;999.90;;;22.20;99.90;;;;;;5024468;28;20483;-70
2022/07/21 05:57:15;;;;;;;1999.90;999.90;;;22.10;99.90;;;;;;5028363;28;20467;-70
2022/07/21 05:59:42;;;;;;;1999.90;999.90;;;22.50;99.90;;;;;;5030459;28;20463;-70
2022/07/21 06:02:09;;;;;;;1999.90;999.90;;;22.90;99.90;;;;;;5030101;28;20463;-68
2022/07/21 06:04:35;;;;;;;1999.90;999.90;;;22.90;99.90;;;;;;5027819;28;20517;-70
2022/07/21 06:07:02;;;;;;;1999.90;999.90;;;22.80;99.90;;;;;;5028491;28;20888;-70
2022/07/21 06:09:29;;;;;;;1999.90;999.90;;;22.70;99.90;;;;;;5029154;28;20467;-71
2022/07/21 06:11:57;;;;;;;1999.90;999.90;;;23.10;99.90;;;;;;5030767;28;20893;-71
2022/07/21 06:14:23;;;;;;;1999.90;999.90;;;23.70;99.90;;;;;;5031095;28;20459;-70
2022/07/21 06:16:50;;;;;;;1999.90;999.90;;;24.30;99.90;;;;;;5036634;22;20562;-73
2022/07/21 06:19:18;;;;;;;1999.90;999.90;;;24.60;99.90;;;;;;5011835;28;20507;-73
2022/07/21 06:21:44;;;;;;;1999.90;999.90;;;24.50;99.90;;;;;;5013967;28;20463;-71
2022/07/21 06:24:11;;;;;;;1999.90;999.90;;;24.90;99.90;;;;;;5013002;28;20518;-70
2022/07/21 06:26:39;;;;;;;1999.90;999.90;;;25.40;99.90;;;;;;5014205;28;20979;-70
2022/07/21 06:29:08;;;;;;;1999.90;999.90;;;25.70;99.90;;;;;;5010169;28;20526;-71
2022/07/21 06:31:34;;;;;;;1999.90;999.90;;;25.80;99.90;;;;;;5013455;28;21013;-71
2022/07/21 06:34:01;;;;;;;1999.90;999.90;;;25.50;99.90;;;;;;5013435;28;20518;-68
2022/07/21 06:36:28;;;;;;;1999.90;999.90;;;25.30;99.90;;;;;;5012083;28;20482;-71
2022/07/21 06:38:54;;;;;;;1999.90;999.90;;;25.00;99.90;;;;;;5010647;28;20464;-71
2022/07/21 06:41:21;;;;;;;1999.90;999.90;;;24.90;99.90;;;;;;5010776;28;20522;-71
2022/07/21 06:43:48;;;;;;;1999.90;999.90;;;24.90;99.90;;;;;;5010281;28;20530;-70
2022/07/21 06:46:16;;;;;;;1999.90;999.90;;;25.30;99.90;;;;;;5010621;28;21058;-74
2022/07/21 06:48:42;;;;;;;1999.90;999.90;;;25.20;99.90;;;;;;5010130;28;20537;-71
2022/07/21 06:51:09;;;;;;;1999.90;999.90;;;25.40;99.90;;;;;;5009468;28;20472;-71
2022/07/21 06:53:36;;;;;;;1999.90;999.90;;;25.30;99.90;;;;;;5011263;28;20460;-71
2022/07/21 06:56:02;;;;;;;1999.90;999.90;;;25.10;99.90;;;;;;5010385;28;20483;-71
2022/07/21 06:58:29;;;;;;;1999.90;999.90;;;24.90;99.90;;;;;;5012725;28;20519;-70
2022/07/21 07:00:56;;;;;;;1999.90;999.90;;;24.80;99.90;;;;;;5011240;28;20464;-71
2022/07/21 07:03:24;;;;;;;1999.90;999.90;;;24.60;99.90;;;;;;5009178;28;20468;-72
2022/07/21 07:05:51;;;;;;;1999.90;999.90;;;24.70;99.90;;;;;;5010088;28;20487;-72
2022/07/21 07:08:17;;;;;;;1999.90;999.90;;;24.80;99.90;;;;;;5009636;28;20459;-71
2022/07/21 07:10:46;;;;;;;1999.90;999.90;;;24.70;99.90;;;;;;5014105;28;20463;-71
2022/07/21 07:13:15;;;;;;;1999.90;999.90;;;24.70;99.90;;;;;;5011465;28;20468;-70
2022/07/21 07:15:41;;;;;;;1999.90;999.90;;;24.70;99.90;;;;;;5010181;28;20483;-70
2022/07/21 07:18:08;;;;;;;1999.90;999.90;;;24.70;99.90;;;;;;5008243;28;20956;-71
2022/07/21 07:20:36;;;;;;;1999.90;999.90;;;24.60;99.90;;;;;;5010372;28;20468;-70
2022/07/21 07:23:03;;;;;;;1999.90;999.90;;;24.60;99.90;;;;;;5013638;28;20476;-71
2022/07/21 07:25:30;;;;;;;1999.90;999.90;;;24.60;99.90;;;;;;5020424;28;20479;-72
2022/07/21 07:27:58;;;;;;;1999.90;999.90;;;24.50;99.90;;;;;;5011325;28;20464;-70
2022/07/21 07:30:25;;;;;;;1999.90;999.90;;;24.60;99.90;;;;;;5012560;28;20444;-71
2022/07/21 07:32:51;;;;;;;1999.90;999.90;;;24.50;99.90;;;;;;5012585;28;20936;-71
2022/07/21 07:35:18;;;;;;;1999.90;999.90;;;24.40;99.90;;;;;;5012563;28;20502;-70
2022/07/21 07:37:47;;;;;;;1999.90;999.90;;;24.60;99.90;;;;;;5011309;28;20448;-72
2022/07/21 07:40:16;;;;;;;1999.90;999.90;;;24.70;99.90;;;;;;5012075;28;20444;-71
2022/07/21 07:42:44;;;;;;;1999.90;999.90;;;24.70;99.90;;;;;;5012055;28;20502;-73
2022/07/21 07:45:11;;;;;;;1999.90;999.90;;;24.60;99.90;;;;;;5012533;28;20806;-71
2022/07/21 07:47:39;;;;;;;1999.90;999.90;;;24.90;99.90;;;;;;5012046;28;21042;-72
2022/07/21 07:50:08;;;;;;;1999.90;999.90;;;25.10;99.90;;;;;;5011309;28;20510;-72
2022/07/21 07:52:35;;;;;;;1999.90;999.90;;;25.60;99.90;;;;;;5012159;28;20511;-71
2022/07/21 07:55:07;;;;;;;1999.90;999.90;;;25.80;99.90;;;;;;5012134;28;20472;-73
2022/07/21 07:57:35;;;;;;;1999.90;999.90;;;26.30;99.90;;;;;;5012192;28;20483;-72
2022/07/21 08:00:01;;;;;;;1999.90;999.90;;;26.50;99.90;;;;;;5012120;28;20498;-72
2022/07/21 08:02:28;;;;;;;1999.90;999.90;;;26.70;99.90;;;;;;5012478;28;20456;-71
2022/07/21 08:04:55;;;;;;;1999.90;999.90;;;26.80;99.90;;;;;;5016346;28;20486;-72
2022/07/21 08:07:22;;;;;;;1999.90;999.90;;;26.70;99.90;;;;;;5015371;28;20495;-72
2022/07/21 08:09:48;;;;;;;1999.90;999.90;;;26.50;99.90;;;;;;5015452;28;20963;-70
2022/07/21 08:12:16;;;;;;;1999.90;999.90;;;26.40;99.90;;;;;;5015908;28;20456;-72
2022/07/21 08:14:43;;;;;;;1999.90;999.90;;;26.10;99.90;;;;;;5014668;28;20464;-72
2022/07/21 08:17:09;;;;;;;1999.90;999.90;;;26.00;99.90;;;;;;5013167;28;21061;-71
2022/07/21 08:19:36;;;;;;;1999.90;999.90;;;26.00;99.90;;;;;;5015436;28;20444;-72
2022/07/21 08:22:03;;;;;;;1999.90;999.90;;;26.40;99.90;;;;;;5015993;28;20506;-72
2022/07/21 08:24:30;;;;;;;1999.90;999.90;;;26.70;99.90;;;;;;5015205;28;20451;-72
2022/07/21 08:26:56;;;;;;;1999.90;999.90;;;27.20;99.90;;;;;;5014406;28;20483;-72
2022/07/21 08:29:24;;;;;;;1999.90;999.90;;;27.30;99.90;;;;;;5015137;28;20498;-74
2022/07/21 08:31:51;;;;;;;1999.90;999.90;;;27.20;99.90;;;;;;5015647;28;20448;-71
2022/07/21 08:34:17;;;;;;;1999.90;999.90;;;27.10;99.90;;;;;;5015215;28;20495;-71
2022/07/21 08:36:44;;;;;;;1999.90;999.90;;;26.90;99.90;;;;;;5015589;28;20472;-71
2022/07/21 08:39:11;;;;;;;1999.90;999.90;;;27.10;99.90;;;;;;5012870;28;20896;-71
2022/07/21 08:41:38;;;;;;;1999.90;999.90;;;27.30;99.90;;;;;;5014825;28;20456;-71
2022/07/21 08:44:07;;;;;;;1999.90;999.90;;;27.10;99.90;;;;;;5015253;28;20444;-71
2022/07/21 08:46:35;;;;;;;1999.90;999.90;;;27.20;99.90;;;;;;5014947;28;20574;-71
2022/07/21 08:49:03;;;;;;;1999.90;999.90;;;27.20;99.90;;;;;;5014200;28;20464;-71
2022/07/21 08:51:33;;;;;;;1999.90;999.90;;;27.70;99.90;;;;;;5015358;28;20488;-71
2022/07/21 08:54:00;;;;;;;1999.90;999.90;;;27.80;99.90;;;;;;5015228;28;20539;-71
2022/07/21 08:56:27;;;;;;;1999.90;999.90;;;28.00;99.90;;;;;;5014804;28;20476;-71
2022/07/21 08:58:54;;;;;;;1999.90;999.90;;;28.70;99.90;;;;;;5014450;28;20873;-71
2022/07/21 09:01:23;;;;;;;1999.90;999.90;;;28.60;99.90;;;;;;5013909;28;20468;-71
2022/07/21 09:03:52;;;;;;;1999.90;999.90;;;28.80;99.90;;;;;;5015018;28;20455;-71
2022/07/21 09:06:19;;;;;;;1999.90;999.90;;;28.30;99.90;;;;;;5014791;28;20917;-71
2022/07/21 09:08:48;;;;;;;1999.90;999.90;;;28.20;99.90;;;;;;5014038;28;20448;-70
2022/07/21 09:11:20;;;;;;;1999.90;999.90;;;28.00;99.90;;;;;;5013502;28;20440;-69
2022/07/21 09:13:51;;;;;;;1999.90;999.90;;;27.70;99.90;;;;;;5008154;28;20444;-70
2022/07/21 09:16:33;;;;;;;1999.90;999.90;;;27.70;99.90;;;;;;5014627;28;21002;-71
2022/07/21 09:19:01;;;;;;;1999.90;999.90;;;27.40;99.90;;;;;;5014732;28;20478;-71
2022/07/21 09:21:29;;;;;;;1999.90;999.90;;;27.20;99.90;;;;;;5012773;28;20472;-71
2022/07/21 09:24:12;;;;;;;1999.90;999.90;;;27.20;99.90;;;;;;5015372;28;20468;-73
2022/07/21 09:27:01;;;;;;;1999.90;999.90;;;27.00;99.90;;;;;;5010256;28;20498;-73
2022/07/21 09:29:33;;;;;;;1999.90;999.90;;;26.80;99.90;;;;;;5013104;28;20494;-73
2022/07/21 09:32:22;;;;;;;1999.90;999.90;;;27.00;99.90;;;;;;5012636;28;20467;-71
2022/07/21 09:34:52;;;;;;;1999.90;999.90;;;26.90;99.90;;;;;;5009270;28;20463;-74
2022/07/21 09:37:19;;;;;;;1999.90;999.90;;;26.80;99.90;;;;;;5008784;28;20951;-74
2022/07/21 09:39:48;;;;;;;1999.90;999.90;;;26.80;99.90;;;;;;5011327;28;20506;-73
2022/07/21 09:42:21;;;;;;;1999.90;999.90;;;26.60;99.90;;;;;;5012874;28;20518;-71
2022/07/21 09:44:49;;;;;;;1999.90;999.90;;;26.40;99.90;;;;;;5009304;28;20476;-70
2022/07/21 09:47:19;;;;;;;1999.90;999.90;;;26.30;99.90;;;;;;5014004;28;20531;-70
2022/07/21 09:49:46;;;;;;;1999.90;999.90;;;26.20;99.90;;;;;;5006961;28;20452;-71
2022/07/21 09:52:22;;;;;;;1999.90;999.90;;;26.10;99.90;;;;;;5012148;28;20882;-70
2022/07/21 09:54:49;;;;;;;1999.90;999.90;;;25.80;99.90;;;;;;5014175;28;20463;-71
2022/07/21 09:57:17;;;;;;;1999.90;999.90;;;25.70;99.90;;;;;;5013552;28;20484;-71
2022/07/21 09:59:44;;;;;;;1999.90;999.90;;;25.60;99.90;;;;;;5016067;28;20468;-68
2022/07/21 10:02:17;;;;;;;1999.90;999.90;;;25.80;99.90;;;;;;5010643;28;20464;-72
2022/07/21 10:04:44;;;;;;;1999.90;999.90;;;26.10;99.90;;;;;;5013470;28;20614;-72
2022/07/21 10:07:11;;;;;;;1999.90;999.90;;;26.50;99.90;;;;;;5011085;28;20487;-73
2022/07/21 10:09:40;;;;;;;1999.90;999.90;;;26.90;99.90;;;;;;5009257;28;20822;-72
2022/07/21 10:12:08;;;;;;;1999.90;999.90;;;27.60;99.90;;;;;;5012804;28;20506;-72
2022/07/21 10:14:36;;;;;;;1999.90;999.90;;;28.20;99.90;;;;;;5013290;28;20448;-71
2022/07/21 10:17:03;;;;;;;1999.90;999.90;;;28.80;97.60;;;;;;5008566;28;21011;-72
2022/07/21 10:19:32;;;;;;;1999.90;999.90;;;28.90;97.80;;;;;;5010664;28;20900;-72
2022/07/21 10:22:13;;;;;;;1999.90;999.90;;;29.00;97.90;;;;;;5013401;28;20448;-70
2022/07/21 10:24:43;;;;;;;1999.90;999.90;;;29.00;97.20;;;;;;5015578;28;20455;-72
2022/07/21 10:27:11;;;;;;;1999.90;999.90;;;29.60;95.80;;;;;;5031819;28;20906;-73
2022/07/21 10:29:52;;;;;;;1999.90;999.90;;;30.10;95.10;;;;;;5010807;28;20464;-72
2022/07/21 10:32:21;;;;;;;1999.90;999.90;;;30.20;95.80;;;;;;5013194;28;20460;-72
2022/07/21 10:34:49;;;;;;;1999.90;999.90;;;29.30;97.50;;;;;;5020808;28;20530;-72
2022/07/21 10:37:51;;;;;;;1999.90;999.90;;;28.00;99.90;;;;;;5011666;28;20486;-72
2022/07/21 10:40:38;;;;;;;1999.90;999.90;;;27.10;99.90;;;;;;5005566;28;20889;-72
2022/07/21 10:43:37;;;;;;;1999.90;999.90;;;26.30;99.90;;;;;;5012990;28;20444;-72
2022/07/21 10:46:24;;;;;;;1999.90;999.90;;;26.30;99.90;;;;;;4994027;28;20552;-73
2022/07/21 10:48:51;;;;;;;1999.90;999.90;;;26.60;99.90;;;;;;5011969;28;20479;-72
2022/07/21 10:51:17;;;;;;;1999.90;999.90;;;27.10;99.90;;;;;;5012379;28;20964;-71
2022/07/21 10:53:46;;;;;;;1999.90;999.90;;;27.40;97.90;;;;;;5008912;28;20467;-73
2022/07/21 10:56:28;;;;;;;1999.90;999.90;;;28.00;97.30;;;;;;5019188;28;20503;-71
2022/07/21 10:58:54;;;;;;;1999.90;999.90;;;28.00;97.50;;;;;;5017792;28;20499;-72
2022/07/21 11:01:24;;;;;;;1999.90;999.90;;;28.60;96.00;;;;;;5011389;28;20463;-73
2022/07/21 11:04:10;;;;;;;1999.90;999.90;;;28.90;95.80;;;;;;5011206;28;20491;-73
2022/07/21 11:06:37;;;;;;;1999.90;999.90;;;28.70;95.30;;;;;;5008332;28;20537;-73
2022/07/21 11:09:10;;;;;;;1999.90;999.90;;;28.60;94.30;;;;;;5007801;28;20464;-73
2022/07/21 11:11:39;;;;;;;1999.90;999.90;;;28.30;95.10;;;;;;5009240;28;20518;-73
2022/07/21 11:14:09;;;;;;;1999.90;999.90;;;28.40;95.10;;;;;;5009367;28;20472;-72
2022/07/21 11:17:10;;;;;;;1999.90;999.90;;;28.60;95.20;;;;;;5009117;28;20848;-73
2022/07/21 11:19:39;;;;;;;1999.90;999.90;;;29.10;95.00;;;;;;5009221;28;20959;-74
2022/07/21 11:22:10;;;;;;;1999.90;999.90;;;29.50;93.30;;;;;;5008424;28;20468;-73
2022/07/21 11:24:38;;;;;;;1999.90;999.90;;;29.00;93.00;;;;;;5007321;28;20464;-73
2022/07/21 11:27:07;;;;;;;1999.90;999.90;;;28.80;93.50;;;;;;5008290;28;20492;-72
2022/07/21 11:29:35;;;;;;;1999.90;999.90;;;28.80;92.90;;;;;;5008224;28;20570;-72
2022/07/21 11:32:02;;;;;;;1999.90;999.90;;;28.60;93.70;;;;;;5007398;28;21030;-72
2022/07/21 11:34:40;;;;;;;1999.90;999.90;;;28.80;93.80;;;;;;5005595;28;20468;-71
2022/07/21 11:37:08;;;;;;;1999.90;999.90;;;28.50;93.70;;;;;;5014377;28;20463;-71
2022/07/21 11:39:35;;;;;;;1999.90;999.90;;;28.80;94.10;;;;;;5015669;28;20444;-73
2022/07/21 11:42:09;;;;;;;1999.90;999.90;;;28.80;94.20;;;;;;5015367;28;20493;-71
2022/07/21 11:44:36;;;;;;;1999.90;999.90;;;29.10;92.90;;;;;;5014680;28;20525;-72
2022/07/21 11:47:05;;;;;;;1999.90;999.90;;;29.20;92.70;;;;;;5013898;28;20542;-73
2022/07/21 11:49:32;;;;;;;1999.90;999.90;;;29.00;93.10;;;;;;5014616;28;20456;-73
2022/07/21 11:52:02;;;;;;;1999.90;999.90;;;28.30;93.20;;;;;;5014468;28;20472;-72
2022/07/21 11:54:34;;;;;;;1999.90;999.90;;;28.40;94.20;;;;;;5012239;28;20459;-73
2022/07/21 11:57:03;;;;;;;1999.90;999.90;;;28.70;94.00;;;;;;5012133;28;20485;-73
2022/07/21 11:59:32;;;;;;;1999.90;999.90;;;28.70;93.50;;;;;;5014742;28;20881;-72
2022/07/21 12:02:04;;;;;;;1999.90;999.90;;;28.60;93.60;;;;;;5013969;28;20940;-72
2022/07/21 12:04:40;;;;;;;1999.90;999.90;;;28.80;93.70;;;;;;5012625;28;20468;-72
2022/07/21 12:07:11;;;;;;;1999.90;999.90;;;29.10;92.90;;;;;;5010975;28;20924;-70